createdAt,value
2017-04-11T03:41:21.818Z,20.41
2017-04-11T03:42:02.496Z,20.38
2017-04-11T03:42:43.625Z,20.43
2017-04-11T03:43:24.577Z,20.48
2017-04-11T03:44:05.516Z,20.43
2017-04-11T03:44:46.293Z,20.41
2017-04-11T03:45:27.344Z,20.42
2017-04-11T03:46:08.237Z,20.39
2017-04-11T03:46:49.202Z,20.35
2017-04-11T03:47:30.395Z,20.42
2017-04-11T03:48:11.280Z,20.43
2017-04-11T03:48:52.007Z,20.51
2017-04-11T03:49:32.583Z,20.51
2017-04-11T03:50:13.148Z,20.43
2017-04-11T03:50:53.736Z,20.52
2017-04-11T03:51:34.317Z,20.51
2017-04-11T03:52:29.455Z,20.41
2017-04-11T03:53:10.037Z,20.47
2017-04-11T03:53:50.621Z,20.39
2017-04-11T03:54:31.195Z,20.32
2017-04-11T03:55:11.784Z,20.21
2017-04-11T03:55:52.357Z,20.2
2017-04-11T03:56:32.938Z,20.2
2017-04-11T03:57:13.521Z,20.08
2017-04-11T03:57:54.096Z,20.01
2017-04-11T03:58:34.678Z,20.02
2017-04-11T03:59:15.255Z,19.94
2017-04-11T03:59:55.835Z,19.92
2017-04-11T04:00:36.403Z,19.8
2017-04-11T04:01:16.987Z,19.81
2017-04-11T04:01:57.566Z,19.65
2017-04-11T04:02:38.146Z,19.65
2017-04-11T04:03:18.715Z,19.55
2017-04-11T04:03:59.291Z,19.56
2017-04-11T04:04:39.879Z,19.54
2017-04-11T04:05:48.579Z,19.47
2017-04-11T04:06:29.165Z,19.46
2017-04-11T04:07:09.750Z,19.39
2017-04-11T04:07:50.332Z,19.36
2017-04-11T04:08:30.915Z,19.32
2017-04-11T04:09:11.498Z,19.29
2017-04-11T04:09:52.070Z,19.18
2017-04-11T04:10:32.655Z,19.07
2017-04-11T04:11:13.236Z,19.07
2017-04-11T04:11:53.807Z,18.98
2017-04-11T04:12:34.388Z,19
2017-04-11T04:13:14.968Z,19
2017-04-11T04:13:55.548Z,19.02
2017-04-11T04:14:36.123Z,18.99
2017-04-11T04:15:16.701Z,18.87
2017-04-11T04:15:57.290Z,18.81
2017-04-11T04:16:37.867Z,18.69
2017-04-11T04:17:18.446Z,18.78
2017-04-11T04:17:59.023Z,18.72
2017-04-11T04:18:39.607Z,18.73
2017-04-11T04:19:20.182Z,18.65
2017-04-11T04:20:00.777Z,18.52
2017-04-11T04:20:41.356Z,18.51
2017-04-11T04:21:21.921Z,18.55
2017-04-11T04:22:02.498Z,18.5
2017-04-11T04:22:43.080Z,18.47
2017-04-11T04:23:23.668Z,18.45
2017-04-11T04:24:04.253Z,18.47
2017-04-11T04:24:44.833Z,18.44
2017-04-11T04:25:25.428Z,18.37
2017-04-11T04:26:06.016Z,18.29
2017-04-11T04:26:46.583Z,18.35
2017-04-11T04:27:27.162Z,18.36
2017-04-11T04:28:07.744Z,18.33
2017-04-11T04:28:48.329Z,18.33
2017-04-11T04:29:28.911Z,18.32
2017-04-11T04:30:09.489Z,18.36
2017-04-11T04:30:50.074Z,18.18
2017-04-11T04:31:30.662Z,18.25
2017-04-11T04:32:11.242Z,18.2
2017-04-11T04:32:51.825Z,18.17
2017-04-11T04:33:32.408Z,18.15
2017-04-11T04:34:12.986Z,18.12
2017-04-11T04:34:53.568Z,18.1
2017-04-11T04:35:34.146Z,18.05
2017-04-11T04:36:14.730Z,18.08
2017-04-11T04:36:55.309Z,18.02
2017-04-11T04:37:35.886Z,17.99
2017-04-11T04:38:16.458Z,18
2017-04-11T04:38:57.035Z,17.9
2017-04-11T04:39:37.610Z,17.95
2017-04-11T04:40:18.190Z,17.9
2017-04-11T04:40:58.767Z,17.86
2017-04-11T04:41:39.333Z,17.81
2017-04-11T04:42:19.915Z,17.84
2017-04-11T04:43:00.495Z,17.84
2017-04-11T04:43:41.081Z,17.84
2017-04-11T04:44:21.647Z,17.81
2017-04-11T04:45:02.232Z,17.82
2017-04-11T04:45:42.817Z,17.86
2017-04-11T04:46:23.395Z,17.81
2017-04-11T04:47:03.976Z,17.78
2017-04-11T04:47:44.554Z,17.78
2017-04-11T04:48:25.136Z,17.86
2017-04-11T04:49:05.715Z,17.7
2017-04-11T04:49:46.303Z,17.66
2017-04-11T04:50:26.863Z,17.87
2017-04-11T04:51:07.448Z,17.82
2017-04-11T04:51:48.029Z,17.79
2017-04-11T04:52:28.610Z,17.77
2017-04-11T04:53:09.199Z,17.81
2017-04-11T04:53:49.775Z,17.7
2017-04-11T04:54:30.339Z,17.79
2017-04-11T04:55:10.918Z,17.71
2017-04-11T04:55:51.499Z,17.84
2017-04-11T04:56:32.087Z,17.77
2017-04-11T04:57:12.670Z,17.77
2017-04-11T04:57:53.249Z,17.79
2017-04-11T04:58:33.825Z,17.82
2017-04-11T04:59:14.408Z,17.84
2017-04-11T04:59:54.979Z,17.84
2017-04-11T05:01:32.337Z,17.77
2017-04-11T05:02:12.923Z,17.72
2017-04-11T05:02:53.491Z,17.72
2017-04-11T05:03:34.080Z,17.71
2017-04-11T05:04:14.658Z,17.63
2017-04-11T05:04:55.233Z,17.59
2017-04-11T05:05:35.814Z,17.72
2017-04-11T05:06:16.391Z,17.71
2017-04-11T05:06:56.968Z,17.68
2017-04-11T05:07:37.549Z,17.71
2017-04-11T05:08:18.136Z,17.7
2017-04-11T05:08:58.711Z,17.64
2017-04-11T05:09:39.280Z,17.7
2017-04-11T05:10:19.879Z,17.59
2017-04-11T05:11:00.455Z,17.77
2017-04-11T05:11:41.035Z,17.72
2017-04-11T05:12:21.602Z,17.7
2017-04-11T05:13:02.175Z,17.7
2017-04-11T05:13:42.749Z,17.66
2017-04-11T05:14:23.335Z,17.71
2017-04-11T05:15:03.925Z,17.75
2017-04-11T05:15:44.482Z,17.79
2017-04-11T05:16:25.061Z,17.81
2017-04-11T05:17:05.643Z,17.81
2017-04-11T05:17:46.226Z,17.71
2017-04-11T05:18:26.805Z,17.79
2017-04-11T05:19:07.388Z,17.81
2017-04-11T05:19:47.966Z,17.78
2017-04-11T05:20:28.547Z,17.89
2017-04-11T05:21:09.120Z,17.84
2017-04-11T05:21:49.730Z,17.9
2017-04-11T05:22:30.270Z,17.96
2017-04-11T05:23:10.858Z,17.97
2017-04-11T05:23:51.419Z,17.97
2017-04-11T05:24:32.009Z,18.02
2017-04-11T05:25:12.583Z,18.02
2017-04-11T05:25:53.172Z,18.05
2017-04-11T05:26:33.739Z,18.15
2017-04-11T05:27:14.319Z,18.08
2017-04-11T05:27:54.902Z,18.23
2017-04-11T05:28:35.494Z,18.23
2017-04-11T05:29:16.082Z,18.33
2017-04-11T05:29:56.653Z,18.35
2017-04-11T05:30:37.224Z,18.44
2017-04-11T05:31:17.803Z,18.45
2017-04-11T05:31:58.384Z,18.44
2017-04-11T05:32:38.966Z,18.45
2017-04-11T05:33:19.547Z,18.54
2017-04-11T05:34:00.133Z,18.58
2017-04-11T05:34:40.716Z,18.58
2017-04-11T05:35:21.297Z,18.72
2017-04-11T05:36:01.876Z,18.73
2017-04-11T05:36:42.436Z,18.76
2017-04-11T05:37:23.034Z,18.87
2017-04-11T05:38:03.609Z,18.87
2017-04-11T05:38:44.176Z,19.02
2017-04-11T05:39:24.750Z,18.92
2017-04-11T05:40:05.336Z,18.99
2017-04-11T05:40:45.922Z,18.99
2017-04-11T05:41:26.500Z,19.07
2017-04-11T05:42:07.086Z,19.08
2017-04-11T05:42:47.673Z,19.11
2017-04-11T05:43:28.250Z,19.19
2017-04-11T05:44:08.829Z,19.25
2017-04-11T05:44:49.408Z,19.33
2017-04-11T05:45:29.995Z,19.31
2017-04-11T05:47:07.358Z,19.48
2017-04-11T05:47:47.939Z,19.43
2017-04-11T05:48:28.519Z,19.4
2017-04-11T05:49:09.106Z,19.43
2017-04-11T05:49:49.693Z,19.51
2017-04-11T05:50:30.268Z,19.55
2017-04-11T05:51:10.853Z,19.55
2017-04-11T05:51:51.417Z,19.54
2017-04-11T05:52:32.002Z,19.56
2017-04-11T05:53:12.584Z,19.63
2017-04-11T05:53:53.164Z,19.68
2017-04-11T05:54:33.752Z,19.76
2017-04-11T05:55:14.328Z,19.78
2017-04-11T05:55:54.904Z,19.84
2017-04-11T05:56:35.486Z,19.86
2017-04-11T05:57:16.065Z,19.91
2017-04-11T05:57:56.649Z,19.96
2017-04-11T05:58:37.239Z,19.96
2017-04-11T05:59:17.812Z,20.16
2017-04-11T05:59:58.402Z,20.26
2017-04-11T06:00:38.978Z,20.24
2017-04-11T06:01:31.108Z,20.42
2017-04-11T06:02:11.689Z,20.42
2017-04-11T06:02:52.270Z,20.52
2017-04-11T06:03:32.858Z,20.59
2017-04-11T06:04:13.443Z,20.7
2017-04-11T06:04:54.024Z,20.85
2017-04-11T06:05:34.613Z,20.98
2017-04-11T06:06:15.197Z,21.09
2017-04-11T06:06:55.770Z,21.27
2017-04-11T06:07:36.348Z,21.56
2017-04-11T06:08:16.932Z,22.09
2017-04-11T06:08:57.530Z,22.68
2017-04-11T06:09:38.091Z,23.15
2017-04-11T06:10:18.677Z,23.48
2017-04-11T06:10:59.252Z,23.91
2017-04-11T06:11:39.834Z,24.25
2017-04-11T06:12:20.418Z,24.64
2017-04-11T06:13:00.996Z,25.02
2017-04-11T06:13:41.567Z,25.2
2017-04-11T06:14:22.151Z,25.24
2017-04-11T06:15:02.731Z,25.42
2017-04-11T06:15:43.316Z,25.46
2017-04-11T06:16:23.895Z,25.54
2017-04-11T06:17:04.479Z,25.62
2017-04-11T06:17:45.060Z,25.82
2017-04-11T06:18:25.625Z,25.95
2017-04-11T06:19:06.249Z,26.06
2017-04-11T06:19:46.789Z,26.23
2017-04-11T06:20:27.368Z,26.37
2017-04-11T06:21:07.944Z,26.58
2017-04-11T06:21:48.533Z,26.85
2017-04-11T06:22:29.108Z,27.04
2017-04-11T06:23:09.681Z,27.25
2017-04-11T06:23:50.261Z,27.43
2017-04-11T06:24:30.841Z,27.75
2017-04-11T06:25:11.418Z,27.94
2017-04-11T06:25:51.991Z,28.22
2017-04-11T06:26:32.582Z,28.48
2017-04-11T06:27:13.165Z,28.74
2017-04-11T06:27:53.748Z,28.86
2017-04-11T06:28:34.325Z,29.18
2017-04-11T06:29:14.899Z,29.36
2017-04-11T06:29:55.480Z,29.6
2017-04-11T06:30:36.063Z,29.85
2017-04-11T06:31:16.646Z,30.08
2017-04-11T06:31:57.231Z,30.26
2017-04-11T06:32:37.812Z,30.45
2017-04-11T06:33:18.393Z,30.62
2017-04-11T06:33:58.979Z,30.83
2017-04-11T06:34:39.560Z,30.79
2017-04-11T06:35:20.146Z,30.89
2017-04-11T06:36:00.730Z,30.94
2017-04-11T06:36:41.317Z,30.89
2017-04-11T06:37:21.888Z,30.75
2017-04-11T06:38:02.471Z,30.82
2017-04-11T06:38:43.054Z,30.84
2017-04-11T06:39:23.635Z,31.09
2017-04-11T06:40:04.216Z,31.12
2017-04-11T06:40:44.804Z,31.28
2017-04-11T06:41:25.384Z,31.31
2017-04-11T06:42:05.974Z,31.35
2017-04-11T06:42:46.562Z,31.29
2017-04-11T06:43:27.126Z,31.12
2017-04-11T06:44:07.724Z,31.01
2017-04-11T06:46:00.354Z,31.32
2017-04-11T06:46:40.932Z,31.51
2017-04-11T06:47:21.515Z,31.72
2017-04-11T06:48:02.099Z,31.88
2017-04-11T06:48:42.672Z,31.85
2017-04-11T06:49:23.251Z,31.48
2017-04-11T06:50:03.830Z,31.32
2017-04-11T06:50:44.421Z,31.16
2017-04-11T06:51:24.991Z,31.04
2017-04-11T06:52:05.573Z,30.8
2017-04-11T06:52:46.153Z,30.69
2017-04-11T06:53:26.732Z,30.7
2017-04-11T06:54:07.311Z,30.84
2017-04-11T06:54:47.896Z,30.83
2017-04-11T06:55:28.490Z,31.06
2017-04-11T06:56:09.055Z,31.13
2017-04-11T06:56:49.638Z,31.23
2017-04-11T06:57:30.209Z,31.39
2017-04-11T06:58:10.791Z,31.43
2017-04-11T06:58:51.370Z,31.46
2017-04-11T06:59:31.952Z,31.53
2017-04-11T07:00:12.542Z,31.61
2017-04-11T07:00:53.120Z,31.43
2017-04-11T07:01:33.690Z,31.65
2017-04-11T07:02:14.273Z,31.56
2017-04-11T07:02:54.862Z,31.58
2017-04-11T07:03:35.440Z,31.84
2017-04-11T07:04:16.023Z,32.33
2017-04-11T07:04:56.612Z,32.33
2017-04-11T07:05:37.198Z,32.44
2017-04-11T07:06:17.782Z,32.74
2017-04-11T07:06:58.374Z,33.12
2017-04-11T07:07:38.957Z,33.38
2017-04-11T07:08:19.540Z,33.59
2017-04-11T07:09:00.132Z,33.86
2017-04-11T07:09:40.712Z,34.13
2017-04-11T07:10:21.299Z,34.47
2017-04-11T07:11:01.882Z,34.78
2017-04-11T07:11:42.464Z,34.82
2017-04-11T07:12:23.058Z,35
2017-04-11T07:13:20.591Z,35.29
2017-04-11T07:14:01.179Z,35.6
2017-04-11T07:14:41.767Z,35.63
2017-04-11T07:15:22.348Z,35.9
2017-04-11T07:16:02.938Z,35.68
2017-04-11T07:16:43.515Z,35.78
2017-04-11T07:17:24.111Z,35.96
2017-04-11T07:18:04.690Z,36.03
2017-04-11T07:18:45.281Z,35.72
2017-04-11T07:19:25.867Z,35.33
2017-04-11T07:20:06.452Z,35.03
2017-04-11T07:20:47.043Z,34.72
2017-04-11T07:21:27.622Z,34.58
2017-04-11T07:22:08.214Z,34.69
2017-04-11T07:22:48.804Z,35.04
2017-04-11T07:23:29.374Z,35.29
2017-04-11T07:24:09.962Z,35.4
2017-04-11T07:24:50.532Z,35.55
2017-04-11T07:25:31.113Z,35.68
2017-04-11T07:26:11.691Z,35.84
2017-04-11T07:26:52.277Z,35.97
2017-04-11T07:27:32.857Z,36.16
2017-04-11T07:28:13.442Z,36.19
2017-04-11T07:28:54.030Z,36.28
2017-04-11T07:29:34.619Z,36.43
2017-04-11T07:30:15.195Z,36.59
2017-04-11T07:30:55.774Z,36.72
2017-04-11T07:31:36.361Z,36.81
2017-04-11T07:32:16.956Z,36.65
2017-04-11T07:32:57.527Z,36.28
2017-04-11T07:33:38.109Z,35.8
2017-04-11T07:34:18.695Z,35.45
2017-04-11T07:34:59.285Z,35.16
2017-04-11T07:35:39.869Z,35.02
2017-04-11T07:36:20.452Z,34.52
2017-04-11T07:37:01.038Z,34.3
2017-04-11T07:37:41.626Z,33.94
2017-04-11T07:38:22.212Z,33.76
2017-04-11T07:39:02.796Z,33.34
2017-04-11T07:39:43.381Z,33.14
2017-04-11T07:40:23.970Z,32.79
2017-04-11T07:41:04.557Z,32.51
2017-04-11T07:41:45.145Z,32.23
2017-04-11T07:42:25.723Z,32.1
2017-04-11T07:43:06.313Z,31.85
2017-04-11T07:43:46.898Z,31.61
2017-04-11T07:44:27.482Z,31.43
2017-04-11T07:45:08.057Z,31.31
2017-04-11T07:45:48.641Z,31.26
2017-04-11T07:46:29.226Z,31.06
2017-04-11T07:47:09.814Z,31.12
2017-04-11T07:47:50.398Z,31.32
2017-04-11T07:48:30.986Z,31.8
2017-04-11T07:49:11.570Z,32.19
2017-04-11T07:49:52.147Z,32.37
2017-04-11T07:50:32.725Z,32.77
2017-04-11T07:51:13.309Z,32.87
2017-04-11T07:51:53.896Z,33.34
2017-04-11T07:52:34.481Z,33.53
2017-04-11T07:53:15.060Z,33.9
2017-04-11T07:53:55.649Z,34.1
2017-04-11T07:54:36.238Z,34.54
2017-04-11T07:55:16.829Z,34.73
2017-04-11T07:55:57.413Z,34.94
2017-04-11T07:56:37.998Z,34.05
2017-04-11T07:57:18.582Z,34.15
2017-04-11T07:57:59.164Z,34.69
2017-04-11T07:58:39.751Z,34.87
2017-04-11T07:59:20.331Z,35.15
2017-04-11T08:00:00.918Z,35.45
2017-04-11T08:00:41.503Z,35.65
2017-04-11T08:01:22.092Z,35.77
2017-04-11T08:02:02.677Z,35.82
2017-04-11T08:02:43.262Z,36.05
2017-04-11T08:03:23.849Z,36.31
2017-04-11T08:04:04.434Z,36.43
2017-04-11T08:04:45.019Z,36.64
2017-04-11T08:05:25.603Z,36.9
2017-04-11T08:06:06.192Z,36.91
2017-04-11T08:06:46.779Z,37.09
2017-04-11T08:07:27.369Z,37.12
2017-04-11T08:08:07.951Z,37.28
2017-04-11T08:08:48.531Z,37.31
2017-04-11T08:09:29.109Z,37.4
2017-04-11T08:10:09.695Z,37.43
2017-04-11T08:10:50.280Z,37.18
2017-04-11T08:11:30.864Z,37.03
2017-04-11T08:12:11.447Z,36.53
2017-04-11T08:12:52.030Z,36.59
2017-04-11T08:13:32.605Z,36.49
2017-04-11T08:14:13.192Z,36.39
2017-04-11T08:14:53.775Z,36.41
2017-04-11T08:15:34.365Z,36.35
2017-04-11T08:16:14.954Z,35.52
2017-04-11T08:16:55.546Z,34.99
2017-04-11T08:17:36.127Z,34.65
2017-04-11T08:18:16.712Z,34.25
2017-04-11T08:18:57.293Z,33.9
2017-04-11T08:19:37.885Z,33.76
2017-04-11T08:20:18.475Z,33.38
2017-04-11T08:20:59.061Z,33.19
2017-04-11T08:21:39.646Z,33.06
2017-04-11T08:22:20.231Z,32.72
2017-04-11T08:23:00.813Z,32.66
2017-04-11T08:23:41.396Z,32.29
2017-04-11T08:24:22.000Z,31.95
2017-04-11T08:25:02.576Z,31.72
2017-04-11T08:25:43.169Z,31.51
2017-04-11T08:26:23.754Z,31.29
2017-04-11T08:27:04.336Z,31.19
2017-04-11T08:27:44.913Z,30.92
2017-04-11T08:28:25.525Z,30.84
2017-04-11T08:29:06.105Z,30.57
2017-04-11T08:29:46.685Z,30.26
2017-04-11T08:30:27.272Z,30.07
2017-04-11T08:31:07.860Z,29.78
2017-04-11T08:31:48.449Z,29.52
2017-04-11T08:32:29.037Z,29.52
2017-04-11T08:33:09.625Z,29.41
2017-04-11T08:33:50.210Z,29.19
2017-04-11T08:34:30.795Z,29.09
2017-04-11T08:36:23.416Z,28.83
2017-04-11T08:37:04.004Z,28.81
2017-04-11T08:37:44.587Z,28.78
2017-04-11T08:38:25.177Z,28.56
2017-04-11T08:39:05.811Z,28.61
2017-04-11T08:39:46.338Z,28.64
2017-04-11T08:40:26.921Z,28.85
2017-04-11T08:41:07.497Z,29.08
2017-04-11T08:41:48.083Z,29.21
2017-04-11T08:42:28.671Z,29.34
2017-04-11T08:43:09.248Z,29.45
2017-04-11T08:43:49.836Z,29.63
2017-04-11T08:44:30.416Z,29.82
2017-04-11T08:45:11.000Z,29.94
2017-04-11T08:45:51.587Z,30.05
2017-04-11T08:46:32.168Z,29.83
2017-04-11T08:47:12.749Z,29.68
2017-04-11T08:47:53.335Z,29.53
2017-04-11T08:48:33.912Z,29.36
2017-04-11T08:49:14.487Z,29.3
2017-04-11T08:49:55.085Z,29.15
2017-04-11T08:50:35.668Z,29.09
2017-04-11T08:51:16.253Z,29.12
2017-04-11T08:51:56.843Z,29.18
2017-04-11T08:52:37.424Z,28.96
2017-04-11T08:53:18.007Z,28.92
2017-04-11T08:53:58.593Z,28.93
2017-04-11T08:54:39.172Z,28.9
2017-04-11T08:55:19.753Z,28.92
2017-04-11T08:56:00.332Z,28.83
2017-04-11T08:56:40.915Z,28.76
2017-04-11T08:57:21.504Z,28.7
2017-04-11T08:58:02.083Z,28.62
2017-04-11T08:58:42.660Z,28.64
2017-04-11T08:59:23.247Z,28.74
2017-04-11T09:00:03.825Z,28.71
2017-04-11T09:00:44.433Z,28.83
2017-04-11T09:01:25.014Z,28.88
2017-04-11T09:02:05.600Z,28.85
2017-04-11T09:02:46.179Z,28.8
2017-04-11T09:03:26.761Z,28.77
2017-04-11T09:04:07.341Z,28.73
2017-04-11T09:04:47.918Z,28.58
2017-04-11T09:05:29.014Z,28.44
2017-04-11T09:06:09.596Z,28.4
2017-04-11T09:06:50.174Z,28.31
2017-04-11T09:07:30.761Z,28.33
2017-04-11T09:08:11.345Z,28.29
2017-04-11T09:08:51.926Z,28.17
2017-04-11T09:09:32.506Z,28.02
2017-04-11T09:10:13.090Z,27.9
2017-04-11T09:10:53.672Z,27.93
2017-04-11T09:11:34.257Z,27.82
2017-04-11T09:12:14.841Z,27.69
2017-04-11T09:12:55.435Z,27.62
2017-04-11T09:13:36.015Z,27.6
2017-04-11T09:14:16.596Z,27.49
2017-04-11T09:14:57.183Z,27.49
2017-04-11T09:15:37.768Z,27.47
2017-04-11T09:16:18.354Z,27.49
2017-04-11T09:16:58.941Z,27.32
2017-04-11T09:17:39.537Z,27.39
2017-04-11T09:18:20.123Z,27.37
2017-04-11T09:19:00.698Z,27.4
2017-04-11T09:19:41.277Z,27.41
2017-04-11T09:20:21.862Z,27.41
2017-04-11T09:21:02.442Z,27.39
2017-04-11T09:21:43.035Z,27.44
2017-04-11T09:22:23.609Z,27.44
2017-04-11T09:23:04.192Z,27.44
2017-04-11T09:23:44.776Z,27.5
2017-04-11T09:24:25.366Z,27.46
2017-04-11T09:25:05.948Z,27.55
2017-04-11T09:25:46.513Z,27.47
2017-04-11T09:26:27.099Z,27.6
2017-04-11T09:27:07.687Z,27.62
2017-04-11T09:27:48.264Z,27.7
2017-04-11T09:28:28.857Z,27.69
2017-04-11T09:29:09.440Z,27.77
2017-04-11T09:30:04.927Z,27.72
2017-04-11T09:30:45.508Z,27.74
2017-04-11T09:31:26.090Z,27.69
2017-04-11T09:32:06.675Z,27.69
2017-04-11T09:32:47.253Z,27.72
2017-04-11T09:33:27.832Z,27.67
2017-04-11T09:34:08.420Z,27.75
2017-04-11T09:34:49.003Z,27.67
2017-04-11T09:35:29.585Z,27.6
2017-04-11T09:36:10.163Z,27.66
2017-04-11T09:36:50.752Z,27.57
2017-04-11T09:37:31.330Z,27.51
2017-04-11T09:38:26.830Z,27.51
2017-04-11T09:39:07.407Z,27.49
2017-04-11T09:39:47.989Z,27.49
2017-04-11T09:40:28.571Z,27.43
2017-04-11T09:41:09.154Z,27.34
2017-04-11T09:41:49.724Z,27.37
2017-04-11T09:42:30.314Z,27.27
2017-04-11T09:43:10.900Z,27.22
2017-04-11T09:43:51.482Z,27.18
2017-04-11T09:44:32.070Z,27.18
2017-04-11T09:45:12.658Z,27.18
2017-04-11T09:45:53.241Z,27.06
2017-04-11T09:46:33.826Z,27.04
2017-04-11T09:47:14.400Z,26.99
2017-04-11T09:47:54.992Z,26.99
2017-04-11T09:48:35.571Z,26.94
2017-04-11T09:49:16.164Z,26.91
2017-04-11T09:49:56.740Z,26.99
2017-04-11T09:50:37.316Z,26.95
2017-04-11T09:51:17.912Z,26.89
2017-04-11T09:51:58.495Z,26.82
2017-04-11T09:52:39.076Z,26.82
2017-04-11T09:53:19.655Z,26.72
2017-04-11T09:54:00.238Z,26.8
2017-04-11T09:54:40.820Z,26.8
2017-04-11T09:55:21.385Z,26.7
2017-04-11T09:56:01.963Z,26.72
2017-04-11T09:56:42.549Z,26.72
2017-04-11T09:57:23.133Z,26.69
2017-04-11T09:58:03.712Z,26.67
2017-04-11T09:58:44.308Z,26.69
2017-04-11T09:59:24.892Z,26.65
2017-04-11T10:00:20.192Z,26.69
2017-04-11T10:01:00.773Z,26.67
2017-04-11T10:01:41.355Z,26.67
2017-04-11T10:03:39.070Z,26.84
2017-04-11T10:04:19.649Z,26.95
2017-04-11T10:05:00.222Z,26.91
2017-04-11T10:05:40.802Z,26.92
2017-04-11T10:06:21.386Z,26.97
2017-04-11T10:07:01.967Z,27.04
2017-04-11T10:07:42.551Z,27.07
2017-04-11T10:08:23.136Z,27.03
2017-04-11T10:09:03.712Z,27.06
2017-04-11T10:09:44.290Z,27.04
2017-04-11T10:10:24.875Z,27.02
2017-04-11T10:11:05.455Z,27.07
2017-04-11T10:11:46.039Z,27.12
2017-04-11T10:12:26.616Z,27.1
2017-04-11T10:13:07.188Z,27.09
2017-04-11T10:13:47.781Z,27.04
2017-04-11T10:14:28.368Z,27
2017-04-11T10:15:08.950Z,27.04
2017-04-11T10:15:49.532Z,26.99
2017-04-11T10:16:30.119Z,26.92
2017-04-11T10:17:10.705Z,26.97
2017-04-11T10:17:51.280Z,26.91
2017-04-11T10:18:31.857Z,26.95
2017-04-11T10:20:24.472Z,26.88
2017-04-11T10:21:05.054Z,26.82
2017-04-11T10:21:45.633Z,26.73
2017-04-11T10:22:26.215Z,26.81
2017-04-11T10:23:06.799Z,26.73
2017-04-11T10:23:47.384Z,26.7
2017-04-11T10:24:27.972Z,26.67
2017-04-11T10:25:08.546Z,26.73
2017-04-11T10:25:49.130Z,26.65
2017-04-11T10:26:29.716Z,26.6
2017-04-11T10:27:10.301Z,26.62
2017-04-11T10:27:50.873Z,26.55
2017-04-11T10:28:31.441Z,26.52
2017-04-11T10:29:12.023Z,26.44
2017-04-11T10:29:52.603Z,26.43
2017-04-11T10:30:33.184Z,26.33
2017-04-11T10:31:13.745Z,26.2
2017-04-11T10:31:54.333Z,26.29
2017-04-11T10:32:34.901Z,26.23
2017-04-11T10:33:15.479Z,26.05
2017-04-11T10:33:56.073Z,25.98
2017-04-11T10:34:36.653Z,26.02
2017-04-11T10:35:17.234Z,25.94
2017-04-11T10:35:57.803Z,25.92
2017-04-11T10:36:38.387Z,25.76
2017-04-11T10:37:18.967Z,25.61
2017-04-11T10:39:11.585Z,25.4
2017-04-11T10:39:52.159Z,25.32
2017-04-11T10:40:32.741Z,25.17
2017-04-11T10:41:13.331Z,25.13
2017-04-11T10:41:53.914Z,25.13
2017-04-11T10:42:34.495Z,25.03
2017-04-11T10:43:15.069Z,25.03
2017-04-11T10:43:55.657Z,24.96
2017-04-11T10:44:36.231Z,24.91
2017-04-11T10:45:16.814Z,24.99
2017-04-11T10:46:12.337Z,24.84
2017-04-11T10:46:52.923Z,24.87
2017-04-11T10:47:33.509Z,24.73
2017-04-11T10:48:14.084Z,24.78
2017-04-11T10:48:54.664Z,24.71
2017-04-11T10:49:35.245Z,24.69
2017-04-11T10:50:15.821Z,24.68
2017-04-11T10:50:56.414Z,24.67
2017-04-11T10:51:36.986Z,24.67
2017-04-11T10:52:17.574Z,24.57
2017-04-11T10:52:58.154Z,24.52
2017-04-11T10:53:38.742Z,24.43
2017-04-11T10:54:19.315Z,24.34
2017-04-11T10:54:59.895Z,24.18
2017-04-11T10:55:40.475Z,24.21
2017-04-11T10:56:21.051Z,24.15
2017-04-11T10:57:01.620Z,24.12
2017-04-11T10:57:42.204Z,24.02
2017-04-11T10:58:22.789Z,23.97
2017-04-11T10:59:03.363Z,23.94
2017-04-11T10:59:43.954Z,23.84
2017-04-11T11:00:24.535Z,23.78
2017-04-11T11:01:05.118Z,23.75
2017-04-11T11:01:45.703Z,23.7
2017-04-11T11:02:26.276Z,23.69
2017-04-11T11:03:06.860Z,23.65
2017-04-11T11:03:47.449Z,23.66
2017-04-11T11:04:28.023Z,23.58
2017-04-11T11:05:08.599Z,23.55
2017-04-11T11:05:49.189Z,23.51
2017-04-11T11:06:29.755Z,23.53
2017-04-11T11:07:10.337Z,23.5
2017-04-11T11:07:50.921Z,23.43
2017-04-11T11:08:31.495Z,23.36
2017-04-11T11:09:12.075Z,23.31
2017-04-11T11:09:52.650Z,23.27
2017-04-11T11:10:33.222Z,23.23
2017-04-11T11:11:13.805Z,23.2
2017-04-11T11:11:54.377Z,23.15
2017-04-11T11:12:34.953Z,23.05
2017-04-11T11:13:15.534Z,22.95
2017-04-11T11:13:56.118Z,22.86
2017-04-11T11:14:36.702Z,22.95
2017-04-11T11:15:17.285Z,22.88
2017-04-11T11:15:57.857Z,22.91
2017-04-11T11:16:38.440Z,22.86
2017-04-11T11:17:19.024Z,22.7
2017-04-11T11:17:59.608Z,22.68
2017-04-11T11:18:40.189Z,22.64
2017-04-11T11:19:20.770Z,22.64
2017-04-11T11:21:19.978Z,22.49
2017-04-11T11:22:00.565Z,22.51
2017-04-11T11:22:41.142Z,22.58
2017-04-11T11:23:21.720Z,22.58
2017-04-11T11:24:02.294Z,22.57
2017-04-11T11:24:42.875Z,22.57
2017-04-11T11:25:23.447Z,22.62
2017-04-11T11:26:04.029Z,22.73
2017-04-11T11:26:44.607Z,22.7
2017-04-11T11:27:25.193Z,22.83
2017-04-11T11:28:05.778Z,22.83
2017-04-11T11:28:46.358Z,23
2017-04-11T11:29:26.937Z,22.97
2017-04-11T11:30:07.521Z,23.12
2017-04-11T11:30:48.099Z,23.17
2017-04-11T11:31:28.681Z,23.25
2017-04-11T11:32:09.251Z,23.38
2017-04-11T11:32:49.832Z,23.39
2017-04-11T11:33:30.413Z,23.51
2017-04-11T11:34:10.992Z,23.53
2017-04-11T11:34:51.578Z,23.51
2017-04-11T11:35:32.168Z,23.48
2017-04-11T11:36:12.753Z,23.61
2017-04-11T11:36:53.334Z,23.55
2017-04-11T11:37:33.930Z,23.6
2017-04-11T11:38:14.507Z,23.58
2017-04-11T11:38:55.094Z,23.63
2017-04-11T11:39:35.675Z,23.65
2017-04-11T11:40:16.257Z,23.55
2017-04-11T11:40:56.840Z,23.72
2017-04-11T11:41:37.426Z,23.54
2017-04-11T11:42:18.004Z,23.63
2017-04-11T11:42:58.580Z,23.58
2017-04-11T11:43:39.172Z,23.58
2017-04-11T11:44:19.758Z,23.55
2017-04-11T11:45:00.343Z,23.51
2017-04-11T11:45:40.928Z,23.46
2017-04-11T11:46:21.511Z,23.4
2017-04-11T11:47:02.092Z,23.4
2017-04-11T11:47:42.681Z,23.33
2017-04-11T11:48:23.268Z,23.23
2017-04-11T11:49:03.851Z,23.16
2017-04-11T11:49:44.434Z,23.17
2017-04-11T11:50:25.005Z,23
2017-04-11T11:51:05.581Z,23.04
2017-04-11T11:51:46.166Z,22.91
2017-04-11T11:52:26.754Z,22.91
2017-04-11T11:53:07.343Z,22.9
2017-04-11T11:53:47.934Z,22.75
2017-04-11T11:54:28.502Z,22.68
2017-04-11T11:55:09.093Z,22.65
2017-04-11T11:55:49.685Z,22.68
2017-04-11T11:56:30.263Z,22.6
2017-04-11T11:57:10.858Z,22.57
2017-04-11T11:57:51.435Z,22.54
2017-04-11T11:58:32.012Z,22.47
2017-04-11T11:59:12.581Z,22.39
2017-04-11T11:59:53.160Z,22.36
2017-04-11T12:00:33.730Z,22.35
2017-04-11T12:01:14.314Z,22.36
2017-04-11T12:01:54.893Z,22.35
2017-04-11T12:02:35.479Z,22.35
2017-04-11T12:03:16.065Z,22.31
2017-04-11T12:05:08.673Z,22.35
2017-04-11T12:05:49.259Z,22.31
2017-04-11T12:06:29.847Z,22.35
2017-04-11T12:07:10.432Z,22.39
2017-04-11T12:07:51.018Z,22.36
2017-04-11T12:08:31.600Z,22.39
2017-04-11T12:09:12.180Z,22.45
2017-04-11T12:09:52.764Z,22.42
2017-04-11T12:10:33.344Z,22.43
2017-04-11T12:11:13.917Z,22.42
2017-04-11T12:11:54.500Z,22.47
2017-04-11T12:12:35.092Z,22.37
2017-04-11T12:13:15.674Z,22.42
2017-04-11T12:13:56.250Z,22.36
2017-04-11T12:14:36.832Z,22.49
2017-04-11T12:15:17.419Z,22.49
2017-04-11T12:15:57.993Z,22.37
2017-04-11T12:16:38.579Z,22.4
2017-04-11T12:17:19.159Z,22.47
2017-04-11T12:17:59.742Z,22.51
2017-04-11T12:18:40.321Z,22.65
2017-04-11T12:19:20.908Z,22.68
2017-04-11T12:20:01.490Z,22.75
2017-04-11T12:20:42.075Z,22.8
2017-04-11T12:21:22.655Z,22.82
2017-04-11T12:22:03.230Z,22.88
2017-04-11T12:22:43.812Z,22.88
2017-04-11T12:23:24.395Z,22.86
2017-04-11T12:24:04.973Z,22.86
2017-04-11T12:24:45.568Z,22.97
2017-04-11T12:25:26.153Z,22.94
2017-04-11T12:26:06.746Z,22.97
2017-04-11T12:26:47.331Z,22.94
2017-04-11T12:27:27.917Z,23.01
2017-04-11T12:28:08.499Z,22.97
2017-04-11T12:28:49.084Z,23.01
2017-04-11T12:29:29.673Z,23.09
2017-04-11T12:30:10.241Z,23.01
2017-04-11T12:30:50.824Z,22.98
2017-04-11T12:31:31.411Z,23
2017-04-11T12:32:11.991Z,22.98
2017-04-11T12:32:52.577Z,22.88
2017-04-11T12:33:33.165Z,22.9
2017-04-11T12:34:13.750Z,22.88
2017-04-11T12:34:54.331Z,22.91
2017-04-11T12:35:34.920Z,22.83
2017-04-11T12:36:15.499Z,23
2017-04-11T12:36:56.080Z,22.97
2017-04-11T12:37:36.669Z,22.91
2017-04-11T12:38:17.251Z,23.04